createdAt,value
2022-08-03T00:00:44.302Z,50.6
2022-08-03T00:02:27.716Z,50.6
2022-08-03T00:04:11.100Z,50.6
2022-08-03T00:05:54.811Z,50.7
2022-08-03T00:07:38.229Z,50.7
2022-08-03T00:09:21.613Z,50.7
2022-08-03T00:11:04.983Z,50.7
2022-08-03T00:12:48.398Z,50.7
2022-08-03T00:14:31.782Z,50.7
2022-08-03T00:16:15.180Z,50.8
2022-08-03T00:17:58.585Z,50.8
2022-08-03T00:21:25.056Z,50.7
2022-08-03T00:23:08.444Z,50.8
2022-08-03T00:24:51.842Z,50.7
2022-08-03T00:26:35.247Z,50.8
2022-08-03T00:28:18.645Z,50.8
2022-08-03T00:30:02.057Z,50.8
2022-08-03T00:31:45.422Z,50.8
2022-08-03T00:33:28.826Z,50.8
2022-08-03T00:38:38.068Z,50.8
2022-08-03T00:40:21.468Z,50.8
2022-08-03T00:42:04.910Z,50.7
2022-08-03T00:43:48.263Z,50.7
2022-08-03T00:45:31.656Z,50.7
2022-08-03T00:48:58.444Z,50.6
2022-08-03T00:50:41.840Z,50.6
2022-08-03T00:54:09.349Z,50.6
2022-08-03T00:55:51.708Z,50.6
2022-08-03T00:57:35.097Z,50.6
2022-08-03T00:59:18.512Z,50.6
2022-08-03T01:01:01.901Z,50.7
2022-08-03T01:02:45.296Z,50.7
2022-08-03T01:04:28.696Z,50.7
2022-08-03T01:06:12.094Z,50.7
2022-08-03T01:07:55.491Z,50.7
2022-08-03T01:09:39.194Z,50.7
2022-08-03T01:11:22.594Z,50.7
2022-08-03T01:13:05.978Z,50.8
2022-08-03T01:14:49.389Z,50.8
2022-08-03T01:16:32.764Z,50.8
2022-08-03T01:18:16.172Z,50.8
2022-08-03T01:19:59.567Z,50.8
2022-08-03T01:21:42.960Z,50.8
2022-08-03T01:23:26.368Z,50.8
2022-08-03T01:25:10.055Z,50.8
2022-08-03T01:26:53.477Z,50.8
2022-08-03T01:28:36.842Z,50.8
2022-08-03T01:30:20.240Z,50.8
2022-08-03T01:32:03.643Z,50.8
2022-08-03T01:33:47.047Z,50.8
2022-08-03T01:35:30.434Z,50.8
2022-08-03T01:37:13.827Z,50.8
2022-08-03T01:42:23.072Z,50.9
2022-08-03T01:44:06.465Z,50.9
2022-08-03T01:45:49.877Z,50.9
2022-08-03T01:47:33.267Z,50.9
2022-08-03T01:49:16.666Z,50.9
2022-08-03T01:51:00.065Z,50.9
2022-08-03T01:52:43.454Z,50.9
2022-08-03T01:54:26.848Z,50.9
2022-08-03T01:59:36.086Z,50.9
2022-08-03T02:01:19.500Z,50.9
2022-08-03T02:03:02.885Z,50.9
2022-08-03T02:04:46.286Z,50.9
2022-08-03T02:06:29.699Z,50.9
2022-08-03T02:08:13.072Z,50.9
2022-08-03T02:09:56.478Z,50.9
2022-08-03T02:11:39.880Z,51
2022-08-03T02:16:49.115Z,51
2022-08-03T02:18:32.516Z,51
2022-08-03T02:20:15.900Z,51
2022-08-03T02:21:59.308Z,51
2022-08-03T02:23:42.690Z,51.1
2022-08-03T02:25:26.101Z,51.1
2022-08-03T02:27:09.484Z,51.1
2022-08-03T02:28:52.882Z,51.1
2022-08-03T02:34:02.124Z,51.1
2022-08-03T02:35:45.526Z,51.1
2022-08-03T02:37:28.935Z,51.1
2022-08-03T02:39:12.321Z,51.2
2022-08-03T02:40:55.706Z,51.2
2022-08-03T02:42:39.097Z,51.2
2022-08-03T02:44:22.514Z,51.2
2022-08-03T02:46:05.889Z,51.2
2022-08-03T02:51:15.136Z,51.2
2022-08-03T02:52:58.536Z,51.2
2022-08-03T02:54:41.955Z,51.2
2022-08-03T02:56:25.339Z,51.3
2022-08-03T02:58:08.726Z,51.3
2022-08-03T02:59:52.134Z,51.3
2022-08-03T03:01:35.528Z,51.3
2022-08-03T03:03:18.930Z,51.3
2022-08-03T03:06:45.400Z,51.3
2022-08-03T03:08:28.789Z,51.3
2022-08-03T03:10:12.195Z,51.3
2022-08-03T03:11:55.573Z,51.3
2022-08-03T03:13:38.972Z,51.3
2022-08-03T03:15:22.373Z,51.3
2022-08-03T03:17:05.786Z,51.3
2022-08-03T03:18:49.180Z,51.3
2022-08-03T03:22:15.642Z,51.3
2022-08-03T03:23:59.060Z,51.3
2022-08-03T03:25:42.470Z,51.4
2022-08-03T03:27:25.819Z,51.4
2022-08-03T03:29:09.235Z,51.4
2022-08-03T03:30:52.627Z,51.4
2022-08-03T03:32:36.037Z,51.4
2022-08-03T03:34:19.414Z,51.4
2022-08-03T03:37:45.892Z,51.4
2022-08-03T03:39:29.278Z,51.4
2022-08-03T03:41:12.686Z,51.4
2022-08-03T03:42:56.073Z,51.4
2022-08-03T03:44:39.476Z,51.4
2022-08-03T03:46:22.876Z,51.4
2022-08-03T03:48:06.271Z,51.5
2022-08-03T03:49:49.660Z,51.5
2022-08-03T03:53:16.161Z,51.5
2022-08-03T03:54:59.544Z,51.5
2022-08-03T03:56:42.941Z,51.5
2022-08-03T03:58:26.337Z,51.5
2022-08-03T04:00:09.742Z,51.5
2022-08-03T04:01:53.117Z,51.5
2022-08-03T04:03:36.515Z,51.5
2022-08-03T04:05:19.913Z,51.5
2022-08-03T04:07:03.319Z,51.5
2022-08-03T04:10:29.796Z,51.6
2022-08-03T04:12:13.180Z,51.6
2022-08-03T04:13:56.592Z,51.6
2022-08-03T04:15:39.969Z,51.6
2022-08-03T04:17:23.377Z,51.7
2022-08-03T04:19:06.777Z,51.7
2022-08-03T04:20:50.173Z,51.7
2022-08-03T04:22:33.609Z,51.8
2022-08-03T04:26:00.036Z,51.7
2022-08-03T04:27:43.439Z,51.8
2022-08-03T04:29:26.830Z,51.8
2022-08-03T04:31:10.236Z,51.8
2022-08-03T04:32:53.621Z,51.8
2022-08-03T04:34:37.040Z,51.9
2022-08-03T04:36:20.419Z,51.9
2022-08-03T04:38:03.827Z,51.9
2022-08-03T04:39:47.227Z,52
2022-08-03T04:44:56.457Z,52.1
2022-08-03T04:46:39.860Z,52.1
2022-08-03T04:48:23.256Z,52.1
2022-08-03T04:50:06.652Z,52.2
2022-08-03T04:51:50.046Z,52.2
2022-08-03T04:53:33.444Z,52.2
2022-08-03T04:55:16.856Z,52.2
2022-08-03T04:57:00.237Z,52.2
2022-08-03T05:02:09.487Z,52.3
2022-08-03T05:03:52.883Z,52.3
2022-08-03T05:05:36.279Z,52.3
2022-08-03T05:07:19.674Z,52.3
2022-08-03T05:09:03.076Z,52.3
2022-08-03T05:10:46.465Z,52.3
2022-08-03T05:12:29.857Z,52.3
2022-08-03T05:14:13.264Z,52.3
2022-08-03T05:19:22.500Z,52.2
2022-08-03T05:21:05.910Z,52.2
2022-08-03T05:22:49.302Z,52.1
2022-08-03T05:24:32.688Z,52.1
2022-08-03T05:26:16.093Z,52.1
2022-08-03T05:27:59.502Z,52.1
2022-08-03T05:29:42.896Z,52.1
2022-08-03T05:31:26.289Z,52
2022-08-03T05:33:09.687Z,52
2022-08-03T05:34:53.377Z,52
2022-08-03T05:36:36.771Z,52
2022-08-03T05:38:20.173Z,52
2022-08-03T05:40:03.582Z,52
2022-08-03T05:41:46.976Z,52
2022-08-03T05:43:30.358Z,52
2022-08-03T05:45:13.773Z,52
2022-08-03T05:46:57.156Z,51.9
2022-08-03T05:48:40.553Z,52
2022-08-03T05:52:07.016Z,52
2022-08-03T05:53:50.423Z,52
2022-08-03T05:55:33.822Z,52
2022-08-03T05:57:17.207Z,52
2022-08-03T05:59:00.619Z,52
2022-08-03T06:00:44.001Z,52
2022-08-03T06:02:27.419Z,52
2022-08-03T06:04:10.813Z,52
2022-08-03T06:05:54.211Z,52
2022-08-03T06:07:37.907Z,52
2022-08-03T06:09:21.312Z,52
2022-08-03T06:11:04.717Z,51.8
2022-08-03T06:12:48.108Z,51.7
2022-08-03T06:14:31.493Z,51.7
2022-08-03T06:16:14.878Z,51.7
2022-08-03T06:17:58.319Z,51.8
2022-08-03T06:19:41.680Z,52
2022-08-03T06:23:08.143Z,52.2
2022-08-03T06:26:34.965Z,52.3
2022-08-03T06:28:18.341Z,52.4
2022-08-03T06:30:01.808Z,52.4
2022-08-03T06:31:45.127Z,52.7
2022-08-03T06:33:28.537Z,52.8
2022-08-03T06:35:11.929Z,52.7
2022-08-03T06:36:55.326Z,52.7
2022-08-03T06:40:21.795Z,52.7
2022-08-03T06:42:05.204Z,52.8
2022-08-03T06:43:48.587Z,52.8
2022-08-03T06:45:31.987Z,52.9
2022-08-03T06:47:15.377Z,52.9
2022-08-03T06:48:58.791Z,53
2022-08-03T06:50:42.164Z,53
2022-08-03T06:52:25.582Z,53
2022-08-03T06:55:52.050Z,53.2
2022-08-03T06:57:35.459Z,53.2
2022-08-03T06:59:18.857Z,53.3
2022-08-03T07:01:02.244Z,53.3
2022-08-03T07:02:45.620Z,53.5
2022-08-03T07:04:29.027Z,53.5
2022-08-03T07:06:12.431Z,53.5
2022-08-03T07:07:55.863Z,53.8
2022-08-03T07:11:22.304Z,53.9
2022-08-03T07:13:05.711Z,54
2022-08-03T07:14:49.089Z,54.2
2022-08-03T07:16:32.492Z,54
2022-08-03T07:18:15.882Z,54
2022-08-03T07:19:59.263Z,54.1
2022-08-03T07:21:42.672Z,54.1
2022-08-03T07:23:26.082Z,54.1
2022-08-03T07:26:52.533Z,54.1
2022-08-03T07:28:35.943Z,54.2
2022-08-03T07:30:19.338Z,54.1
2022-08-03T07:32:02.737Z,54.2
2022-08-03T07:33:46.156Z,54.4
2022-08-03T07:35:29.517Z,54.2
2022-08-03T07:37:12.923Z,54.1
2022-08-03T07:38:56.317Z,54.1
2022-08-03T07:42:22.799Z,54
2022-08-03T07:44:06.174Z,54.1
2022-08-03T07:45:49.600Z,54
2022-08-03T07:47:32.965Z,53.8
2022-08-03T07:49:16.372Z,54.1
2022-08-03T07:50:59.758Z,54.3
2022-08-03T07:52:43.167Z,54.5
2022-08-03T07:54:26.557Z,54.4
2022-08-03T07:57:53.033Z,54.3
2022-08-03T07:59:36.430Z,54.4
2022-08-03T08:01:19.814Z,54.5
2022-08-03T08:03:03.216Z,54.5
2022-08-03T08:04:46.620Z,54.6
2022-08-03T08:06:30.023Z,54.5
2022-08-03T08:08:13.411Z,53.8
2022-08-03T08:09:56.816Z,53.9
2022-08-03T08:13:23.278Z,54.4
2022-08-03T08:15:06.675Z,54.3
2022-08-03T08:16:50.081Z,54.1
2022-08-03T08:18:33.469Z,54
2022-08-03T08:20:16.875Z,53.8
2022-08-03T08:22:00.258Z,53.5
2022-08-03T08:23:43.663Z,53.4
2022-08-03T08:25:27.088Z,53.5
2022-08-03T08:28:53.564Z,53.8
2022-08-03T08:30:36.924Z,53.7
2022-08-03T08:32:20.361Z,53.8
2022-08-03T08:34:03.727Z,53.7
2022-08-03T08:35:47.129Z,53.2
2022-08-03T08:37:30.535Z,53.2
2022-08-03T08:39:13.910Z,53.4
2022-08-03T08:40:57.306Z,53.3
2022-08-03T08:44:23.789Z,53.4
2022-08-03T08:46:07.179Z,53.4
2022-08-03T08:47:50.591Z,53.4
2022-08-03T08:49:33.969Z,53.4
2022-08-03T08:51:17.372Z,53.5
2022-08-03T08:53:00.785Z,53.4
2022-08-03T08:54:44.176Z,53.5
2022-08-03T08:56:27.586Z,53.5
2022-08-03T08:59:54.052Z,53.1
2022-08-03T09:01:37.443Z,53
2022-08-03T09:03:20.839Z,53
2022-08-03T09:05:04.238Z,52.9
2022-08-03T09:06:47.632Z,52.8
2022-08-03T09:08:31.022Z,52.8
2022-08-03T09:10:14.443Z,52.8
2022-08-03T09:11:57.814Z,52.8
2022-08-03T09:15:24.289Z,52.6
2022-08-03T09:17:07.728Z,52.5
2022-08-03T09:18:51.086Z,52.4
2022-08-03T09:20:34.495Z,52.4
2022-08-03T09:22:17.891Z,52.4
2022-08-03T09:24:01.288Z,52.4
2022-08-03T09:25:44.683Z,52.4
2022-08-03T09:27:28.075Z,52.3
2022-08-03T09:30:54.550Z,52
2022-08-03T09:32:37.956Z,52.1
2022-08-03T09:34:21.362Z,52.1
2022-08-03T09:36:04.752Z,52.1
2022-08-03T09:37:48.141Z,52
2022-08-03T09:39:31.544Z,51.9
2022-08-03T09:41:14.942Z,51.7
2022-08-03T09:42:58.337Z,51.5
2022-08-03T09:46:24.823Z,51.3
2022-08-03T09:48:08.209Z,51.4
2022-08-03T09:49:51.620Z,51.2
2022-08-03T09:51:34.998Z,50.9
2022-08-03T09:53:18.381Z,50.8
2022-08-03T09:55:01.796Z,51
2022-08-03T09:56:45.179Z,50.9
2022-08-03T09:58:28.580Z,50.9
2022-08-03T10:00:12.285Z,50.9
2022-08-03T10:01:55.681Z,50.7
2022-08-03T10:03:39.081Z,50.6
2022-08-03T10:05:22.477Z,50.3
2022-08-03T10:07:05.870Z,50.4
2022-08-03T10:08:49.286Z,50.2
2022-08-03T10:10:32.669Z,50.2
2022-08-03T10:12:16.053Z,50.4
2022-08-03T10:13:59.766Z,50.2
2022-08-03T10:15:43.167Z,50.1
2022-08-03T10:17:26.564Z,50.1
2022-08-03T10:19:09.961Z,50.1
2022-08-03T10:20:53.367Z,50
2022-08-03T10:22:36.742Z,50.1
2022-08-03T10:24:20.154Z,50.2
2022-08-03T10:26:03.551Z,50.1
2022-08-03T10:29:30.021Z,50.1
2022-08-03T10:31:13.413Z,50.2
2022-08-03T10:32:56.823Z,50.1
2022-08-03T10:34:40.202Z,50
2022-08-03T10:36:23.609Z,49.7
2022-08-03T10:38:07.011Z,49.9
2022-08-03T10:39:50.414Z,49.9
2022-08-03T10:41:33.796Z,49.8
2022-08-03T10:43:17.500Z,50.1
2022-08-03T10:45:00.885Z,50
2022-08-03T10:46:44.318Z,49.9
2022-08-03T10:48:27.684Z,50
2022-08-03T10:50:11.094Z,50
2022-08-03T10:51:54.495Z,49.8
2022-08-03T10:53:37.872Z,50
2022-08-03T10:55:21.277Z,50.1
2022-08-03T10:57:04.984Z,50.1
2022-08-03T10:58:48.376Z,50.1
2022-08-03T11:00:31.787Z,50.1
2022-08-03T11:02:15.165Z,50.1
2022-08-03T11:03:58.567Z,50
2022-08-03T11:05:41.963Z,50
2022-08-03T11:07:25.402Z,50
2022-08-03T11:09:08.745Z,50
2022-08-03T11:12:35.251Z,49.8
2022-08-03T11:14:18.629Z,49.7
2022-08-03T11:16:02.056Z,49.6
2022-08-03T11:17:45.422Z,49.6
2022-08-03T11:19:28.829Z,49.7
2022-08-03T11:21:12.207Z,49.8
2022-08-03T11:22:55.612Z,49.7
2022-08-03T11:24:39.019Z,49.5
2022-08-03T11:26:22.713Z,49.5
2022-08-03T11:28:06.113Z,49.3
2022-08-03T11:29:49.509Z,49.3
2022-08-03T11:31:32.895Z,49.4
2022-08-03T11:33:16.288Z,49.3
2022-08-03T11:34:59.687Z,48.8
2022-08-03T11:36:43.098Z,49
2022-08-03T11:38:26.475Z,49.3
2022-08-03T11:41:52.955Z,49.5
2022-08-03T11:43:36.348Z,49.6
2022-08-03T11:45:19.749Z,49.8
2022-08-03T11:47:03.136Z,49.9
2022-08-03T11:48:46.549Z,49.9
2022-08-03T11:50:29.940Z,49.9
2022-08-03T11:52:13.323Z,49.9
2022-08-03T11:53:56.718Z,49.9
2022-08-03T11:55:40.436Z,49.8
2022-08-03T11:57:23.831Z,49.6
2022-08-03T11:59:07.214Z,49.5
2022-08-03T12:00:50.607Z,49.5
2022-08-03T12:02:34.002Z,49.4
2022-08-03T12:04:17.403Z,49.4
2022-08-03T12:06:00.807Z,49.4
2022-08-03T12:07:44.205Z,49.2
2022-08-03T12:11:10.669Z,49.5
2022-08-03T12:12:54.058Z,49.2
2022-08-03T12:14:37.473Z,49.1
2022-08-03T12:16:20.858Z,48.8
2022-08-03T12:18:04.261Z,48.6
2022-08-03T12:19:47.656Z,48.6
2022-08-03T12:21:31.128Z,48.6
2022-08-03T12:23:14.447Z,48.5
2022-08-03T12:24:58.148Z,48.4
2022-08-03T12:26:41.551Z,48.2
2022-08-03T12:28:24.940Z,48.4
2022-08-03T12:30:08.327Z,48.3
2022-08-03T12:31:51.726Z,48.1
2022-08-03T12:33:35.139Z,47.8
2022-08-03T12:35:18.522Z,47.8
2022-08-03T12:37:01.923Z,48.1
2022-08-03T12:40:28.386Z,48.2
2022-08-03T12:42:11.781Z,48.1
2022-08-03T12:43:55.177Z,48.2
2022-08-03T12:45:38.575Z,48.3
2022-08-03T12:47:21.989Z,48.2
2022-08-03T12:49:05.376Z,48.1
2022-08-03T12:50:48.763Z,47.9
2022-08-03T12:52:32.165Z,47.9
2022-08-03T12:55:58.633Z,47.7
2022-08-03T12:57:42.035Z,47.6
2022-08-03T12:59:25.432Z,47.6
2022-08-03T13:01:08.821Z,47.6
2022-08-03T13:02:52.226Z,47.5
2022-08-03T13:04:35.622Z,47.7
2022-08-03T13:06:19.003Z,47.6
2022-08-03T13:08:02.435Z,47.5
2022-08-03T13:09:46.111Z,47.4
2022-08-03T13:11:29.503Z,47.5
2022-08-03T13:13:12.896Z,47.4
2022-08-03T13:14:56.315Z,47.4
2022-08-03T13:16:39.694Z,47.4
2022-08-03T13:18:23.097Z,47.2
2022-08-03T13:20:06.499Z,47.2
2022-08-03T13:21:49.881Z,47
2022-08-03T13:25:16.355Z,46.8
2022-08-03T13:26:59.761Z,46.6
2022-08-03T13:28:43.177Z,46.3
2022-08-03T13:30:26.549Z,46.3
2022-08-03T13:32:09.942Z,46.6
2022-08-03T13:33:53.344Z,46.8
2022-08-03T13:35:36.737Z,46.7
2022-08-03T13:39:03.835Z,46.5
2022-08-03T13:40:47.249Z,46.5
2022-08-03T13:42:30.652Z,46.5
2022-08-03T13:44:14.033Z,46.5
2022-08-03T13:45:57.421Z,46.6
2022-08-03T13:47:40.827Z,46.6
2022-08-03T13:49:24.217Z,46.5
2022-08-03T13:51:07.647Z,46.5
2022-08-03T13:54:34.083Z,46.5
2022-08-03T13:56:17.471Z,46.5
2022-08-03T13:58:00.885Z,46.4
2022-08-03T13:59:44.276Z,46.2
2022-08-03T14:01:27.658Z,46.3
2022-08-03T14:03:11.076Z,46.1
2022-08-03T14:04:54.467Z,46
2022-08-03T14:06:37.869Z,46
2022-08-03T14:08:21.629Z,45.8
2022-08-03T14:10:04.963Z,45.7
2022-08-03T14:11:48.348Z,45.8
2022-08-03T14:13:31.755Z,45.5
2022-08-03T14:15:15.138Z,45.6
2022-08-03T14:16:58.549Z,45.8
2022-08-03T14:18:41.930Z,45.8
2022-08-03T14:20:25.339Z,45.5
2022-08-03T14:23:51.836Z,45.5
2022-08-03T14:25:35.188Z,45.5
2022-08-03T14:27:18.617Z,45.8
2022-08-03T14:29:02.014Z,45.7
2022-08-03T14:30:45.396Z,45.7
2022-08-03T14:32:28.793Z,45.8
2022-08-03T14:34:12.189Z,45.8
2022-08-03T14:35:55.580Z,46
2022-08-03T14:39:22.298Z,46.1
2022-08-03T14:41:05.442Z,46
2022-08-03T14:44:32.239Z,46
2022-08-03T14:46:15.637Z,46
2022-08-03T14:47:59.053Z,46.3
2022-08-03T14:49:42.425Z,46.2
2022-08-03T15:08:39.164Z,47.5
2022-08-03T15:10:22.548Z,47.5
2022-08-03T15:12:05.954Z,47.3
2022-08-03T15:13:49.332Z,47.5
2022-08-03T15:15:32.724Z,47.6
2022-08-03T15:17:16.149Z,47.8
2022-08-03T15:18:59.519Z,47.7
2022-08-03T15:20:42.920Z,47.6
2022-08-03T15:24:09.384Z,47.5
2022-08-03T15:25:52.801Z,47.5
2022-08-03T15:27:36.188Z,47.7
2022-08-03T15:29:19.570Z,47.9
2022-08-03T15:31:02.983Z,48.2
2022-08-03T15:32:46.377Z,48.3
2022-08-03T15:34:29.776Z,48.4
2022-08-03T15:36:13.158Z,48.3
2022-08-03T15:39:39.639Z,48.1
2022-08-03T15:41:23.073Z,48.2
2022-08-03T15:43:06.434Z,48.1
2022-08-03T15:44:49.814Z,48.1
2022-08-03T15:46:33.229Z,48.1
2022-08-03T15:48:16.640Z,48
2022-08-03T15:50:00.020Z,48.1
2022-08-03T15:51:43.402Z,47.9
2022-08-03T15:53:27.111Z,47.9
2022-08-03T15:55:10.515Z,47.8
2022-08-03T15:56:53.909Z,47.9
2022-08-03T15:58:37.322Z,47.7
2022-08-03T16:00:20.695Z,47.5
2022-08-03T16:02:04.109Z,47.3
2022-08-03T16:03:47.490Z,47.4
2022-08-03T16:05:30.900Z,47.4
2022-08-03T16:08:57.365Z,47.2
2022-08-03T16:10:40.776Z,47.3
2022-08-03T16:12:24.172Z,47.1
2022-08-03T16:14:07.552Z,46.9
2022-08-03T16:15:50.954Z,47
2022-08-03T16:17:34.358Z,46.9
2022-08-03T16:19:17.753Z,46.9
2022-08-03T16:21:01.165Z,46.7
2022-08-03T16:24:27.618Z,46.6
2022-08-03T16:26:11.022Z,46.5
2022-08-03T16:27:54.405Z,46.5
2022-08-03T16:29:37.808Z,46.4
2022-08-03T16:31:21.218Z,46.3
2022-08-03T16:33:04.608Z,46.3
2022-08-03T16:36:31.408Z,46.2
2022-08-03T16:39:57.870Z,46.1
2022-08-03T16:41:41.271Z,46.1
2022-08-03T16:43:24.650Z,46.2
2022-08-03T16:45:08.061Z,46.1
2022-08-03T16:46:51.464Z,46.1
2022-08-03T16:48:34.861Z,46.2
2022-08-03T16:50:18.258Z,46.3
2022-08-03T16:55:27.492Z,46.5
2022-08-03T16:57:10.888Z,46.5
2022-08-03T16:58:54.330Z,46.4
2022-08-03T17:00:37.706Z,46.4
2022-08-03T17:02:21.095Z,46.4
2022-08-03T17:04:04.526Z,46.3
2022-08-03T17:05:47.903Z,46.2
2022-08-03T17:07:31.277Z,46.2
2022-08-03T17:09:15.031Z,46.3
2022-08-03T17:10:58.416Z,46.4
2022-08-03T17:12:41.775Z,46.5
2022-08-03T17:14:25.196Z,46.4
2022-08-03T17:16:08.577Z,46.5
2022-08-03T17:17:51.968Z,46.5
2022-08-03T17:19:35.367Z,46.5
2022-08-03T17:21:18.758Z,46.6
2022-08-03T17:24:45.239Z,46.7
2022-08-03T17:26:28.624Z,46.6
2022-08-03T17:28:12.030Z,46.7
2022-08-03T17:29:55.427Z,46.7
2022-08-03T17:31:38.821Z,46.8
2022-08-03T17:33:22.211Z,46.8
2022-08-03T17:35:05.631Z,46.9
2022-08-03T17:36:49.002Z,47
2022-08-03T17:40:15.473Z,47.1
2022-08-03T17:41:58.913Z,47.2
2022-08-03T17:43:42.278Z,47.2
2022-08-03T17:45:25.680Z,47.3
2022-08-03T17:47:09.060Z,47.4
2022-08-03T17:48:52.476Z,47.6
2022-08-03T17:50:35.868Z,47.7
2022-08-03T17:55:45.108Z,47.9
2022-08-03T17:57:28.497Z,48.1
2022-08-03T17:59:11.919Z,48.3
2022-08-03T18:00:55.303Z,48.4
2022-08-03T18:02:38.722Z,48.5
2022-08-03T18:04:22.111Z,48.6
2022-08-03T18:06:05.487Z,48.6
2022-08-03T18:11:14.725Z,49
2022-08-03T18:12:58.120Z,49.2
2022-08-03T18:14:41.542Z,49.3
2022-08-03T18:16:24.918Z,49.4
2022-08-03T18:18:08.314Z,49.5
2022-08-03T18:19:51.706Z,49.6
2022-08-03T18:21:35.139Z,49.6
2022-08-03T18:25:01.594Z,49.8
2022-08-03T18:26:44.991Z,50.2
2022-08-03T18:28:28.421Z,50.7
2022-08-03T18:30:11.801Z,50.6
2022-08-03T18:31:55.185Z,51.2
2022-08-03T18:33:38.575Z,51.4
2022-08-03T18:35:21.958Z,51.7
2022-08-03T18:40:31.202Z,52
2022-08-03T18:42:14.623Z,52
2022-08-03T18:43:57.989Z,52
2022-08-03T18:45:41.389Z,52.1
2022-08-03T18:47:24.806Z,51.9
2022-08-03T18:49:08.170Z,51.7
2022-08-03T18:50:51.581Z,51.7
2022-08-03T18:54:18.064Z,51.4
2022-08-03T18:56:01.448Z,51.4
2022-08-03T18:57:44.853Z,51
2022-08-03T18:59:28.241Z,50.8
2022-08-03T19:01:15.126Z,50.8
2022-08-03T19:02:55.044Z,50.7
2022-08-03T19:04:38.446Z,50.7
2022-08-03T19:06:21.816Z,50.6
2022-08-03T19:09:48.370Z,50.3
2022-08-03T19:11:31.707Z,50.1
2022-08-03T19:13:15.092Z,50
2022-08-03T19:14:58.510Z,49.9
2022-08-03T19:16:41.905Z,49.8
2022-08-03T19:18:25.320Z,49.8
2022-08-03T19:21:52.112Z,49.5
2022-08-03T19:23:35.804Z,49.4
2022-08-03T19:25:19.211Z,49.3
2022-08-03T19:27:02.590Z,49.4
2022-08-03T19:28:46.019Z,49.5
2022-08-03T19:30:29.434Z,49.5
2022-08-03T19:32:12.776Z,49.3
2022-08-03T19:33:56.166Z,49.2
2022-08-03T19:35:39.553Z,49.3
2022-08-03T19:39:06.048Z,49.5
2022-08-03T19:40:49.447Z,49.5
2022-08-03T19:42:32.860Z,49.5
2022-08-03T19:44:16.211Z,49.5
2022-08-03T19:45:59.618Z,49.6
2022-08-03T19:47:43.055Z,49.5
2022-08-03T19:49:26.457Z,49.4
2022-08-03T19:51:09.829Z,49.5
2022-08-03T19:54:36.295Z,49.3
2022-08-03T19:56:19.690Z,49.4
2022-08-03T19:58:03.078Z,49.3
2022-08-03T19:59:46.474Z,49.4
2022-08-03T20:01:29.901Z,49.5
2022-08-03T20:03:13.264Z,49.5
2022-08-03T20:04:56.652Z,49.5
2022-08-03T20:06:40.098Z,49.6
2022-08-03T20:10:06.566Z,49.5
2022-08-03T20:11:49.965Z,49.4
2022-08-03T20:13:33.325Z,49.5
2022-08-03T20:15:16.734Z,49.5
2022-08-03T20:17:00.158Z,49.6
2022-08-03T20:18:43.532Z,49.6
2022-08-03T20:20:26.932Z,49.5
2022-08-03T20:22:10.364Z,49.4
2022-08-03T20:25:36.810Z,49.4
2022-08-03T20:27:20.181Z,49.5
2022-08-03T20:29:03.614Z,49.6
2022-08-03T20:30:46.987Z,49.6
2022-08-03T20:32:30.376Z,49.6
2022-08-03T20:34:13.788Z,49.8
2022-08-03T20:35:57.170Z,49.9
2022-08-03T20:37:40.609Z,50
2022-08-03T20:41:07.069Z,50.3
2022-08-03T20:42:50.460Z,50.5
2022-08-03T20:44:33.840Z,50.7
2022-08-03T20:46:17.228Z,50.6
2022-08-03T20:48:00.643Z,50.8
2022-08-03T20:49:44.022Z,50.8
2022-08-03T20:51:27.431Z,50.8
2022-08-03T20:53:10.809Z,50.8
2022-08-03T20:58:20.063Z,50.6
2022-08-03T21:00:03.461Z,50.7
2022-08-03T21:01:46.852Z,50.8
2022-08-03T21:03:30.239Z,50.8
2022-08-03T21:05:13.662Z,51
2022-08-03T21:06:57.060Z,51.2
2022-08-03T21:08:40.431Z,51.2
2022-08-03T21:10:23.832Z,51.3
2022-08-03T21:13:50.305Z,51.2
2022-08-03T21:15:33.710Z,51.7
2022-08-03T21:17:17.102Z,51.4
2022-08-03T21:19:00.499Z,51.3
2022-08-03T21:20:43.893Z,51.1
2022-08-03T21:22:27.291Z,51.1
2022-08-03T21:24:10.690Z,51
2022-08-03T21:25:54.100Z,51
2022-08-03T21:31:03.330Z,50.9
2022-08-03T21:32:46.754Z,50.9
2022-08-03T21:34:30.155Z,50.8
2022-08-03T21:36:13.529Z,50.9
2022-08-03T21:37:56.937Z,50.8
2022-08-03T21:39:40.314Z,50.8
2022-08-03T21:41:23.703Z,50.7
2022-08-03T21:43:07.113Z,50.7
2022-08-03T21:46:33.598Z,50.7
2022-08-03T21:48:16.984Z,50.6
2022-08-03T21:50:00.389Z,50.6
2022-08-03T21:51:43.781Z,50.5
2022-08-03T21:53:27.171Z,50.5
2022-08-03T21:55:10.579Z,50.5
2022-08-03T21:56:53.957Z,50.5
2022-08-03T21:58:37.382Z,50.5
2022-08-03T22:00:21.084Z,50.4
2022-08-03T22:02:04.476Z,50.4
2022-08-03T22:03:47.862Z,50.3
2022-08-03T22:05:31.268Z,50.3
2022-08-03T22:07:14.673Z,50.3
2022-08-03T22:08:58.107Z,50.2
2022-08-03T22:10:41.455Z,50.3
2022-08-03T22:12:24.848Z,50.3
2022-08-03T22:15:51.315Z,50.4
2022-08-03T22:17:34.734Z,50.5
2022-08-03T22:19:18.130Z,50.6
2022-08-03T22:21:01.518Z,50.7
2022-08-03T22:22:44.926Z,50.6
2022-08-03T22:24:28.307Z,50.5
2022-08-03T22:26:11.711Z,50.5
2022-08-03T22:27:55.095Z,50.5
2022-08-03T22:33:04.351Z,50.3
2022-08-03T22:34:47.742Z,50.3
2022-08-03T22:36:31.138Z,50.2
2022-08-03T22:38:14.546Z,50.2
2022-08-03T22:39:57.939Z,50.3
2022-08-03T22:41:41.331Z,50.4
2022-08-03T22:43:24.726Z,50.4
2022-08-03T22:45:08.132Z,50.4
2022-08-03T22:48:34.612Z,50.4
2022-08-03T22:50:18.016Z,50.5
2022-08-03T22:52:01.394Z,50.5
2022-08-03T22:53:44.796Z,50.7
2022-08-03T22:55:28.183Z,50.7
2022-08-03T22:57:11.607Z,50.6
2022-08-03T22:58:54.987Z,50.6
2022-08-03T23:00:38.374Z,50.5
2022-08-03T23:05:47.625Z,50.2
2022-08-03T23:07:31.020Z,50.2
2022-08-03T23:09:14.440Z,50.1
2022-08-03T23:10:57.815Z,50.2
2022-08-03T23:12:41.200Z,50.1
2022-08-03T23:14:24.615Z,50.1
2022-08-03T23:16:07.988Z,50.1
2022-08-03T23:17:51.406Z,50.2
2022-08-03T23:21:17.872Z,50.2
2022-08-03T23:23:01.277Z,50.2
2022-08-03T23:24:44.668Z,50.2
2022-08-03T23:26:28.057Z,50.2
2022-08-03T23:28:11.460Z,50.3
2022-08-03T23:29:54.860Z,50.3
2022-08-03T23:31:38.252Z,50.3
2022-08-03T23:33:21.640Z,50.3
2022-08-03T23:36:48.128Z,50.3
2022-08-03T23:38:31.514Z,50.3
2022-08-03T23:40:14.914Z,50.3
2022-08-03T23:41:58.305Z,50.3
2022-08-03T23:43:41.696Z,50.2
2022-08-03T23:45:25.102Z,50.1
2022-08-03T23:47:08.513Z,50.1
2022-08-03T23:48:51.886Z,50.1
2022-08-03T23:52:18.370Z,50
2022-08-03T23:54:01.750Z,50
2022-08-03T23:55:45.170Z,50
2022-08-03T23:57:28.559Z,49.9
2022-08-03T23:59:11.941Z,49.9
